Time;durP1;ratioP1;P1;durP2;ratioP2;P2;SDS_P1;SDS_P2;PMS_P1;PMS_P2;Temp;Humidity;BMP_temperature;BMP_pressure;BME280_temperature;BME280_humidity;BME280_pressure;Samples;Min_cycle;Max_cycle;Signal;HPM_P1;HPM_P2
2024/02/23 00:00:28;;;;;;;;;;;;;;;19.79;51.40;97943.28;2064412;28;7115;-64
2024/02/23 00:01:30;;;;;;;;;;;;;;;19.78;51.26;97951.19;2070133;28;2383;-63
2024/02/23 00:02:31;;;;;;;;;;;;;;;19.79;51.36;97954.75;2068815;28;2263;-64
2024/02/23 00:03:34;;;;;;;;;;;;;;;19.77;51.25;97952.63;2067333;28;2188;-64
2024/02/23 00:04:36;;;;;;;;;;;;;;;19.78;51.37;97953.34;2066174;28;2291;-64
2024/02/23 00:05:37;;;;;;;;;;;;;;;19.78;51.38;97953.34;2067762;28;2254;-63
2024/02/23 00:06:39;;;;;;;;;;;;;;;19.78;51.23;97956.22;2067482;28;2316;-63
2024/02/23 00:07:40;;;;;;;;;;;;;;;19.77;51.31;97957.63;2067465;28;1673;-62
2024/02/23 00:08:42;;;;;;;;;;;;;;;19.77;51.26;97957.63;2066972;28;2149;-63
2024/02/23 00:09:43;;;;;;;;;;;;;;;19.76;51.46;97967.69;2070336;28;1705;-64
2024/02/23 00:10:44;;;;;;;;;;;;;;;19.77;51.25;97966.97;2070557;28;1903;-63
2024/02/23 00:11:47;;;;;;;;;;;;;;;19.76;51.42;97956.91;2070414;28;2043;-63
2024/02/23 00:12:48;;;;;;;;;;;;;;;19.76;51.39;97962.66;2068333;28;2323;-64
2024/02/23 00:13:50;;;;;;;;;;;;;;;19.76;51.22;97964.81;2068082;28;1668;-63
2024/02/23 00:14:51;;;;;;;;;;;;;;;19.76;51.31;97959.06;2065680;28;2398;-63
2024/02/23 00:15:52;;;;;;;;;;;;;;;19.76;51.26;97967.69;2067345;28;2187;-63
2024/02/23 00:16:54;;;;;;;;;;;;;;;19.75;51.37;97955.50;2069237;28;2161;-63
2024/02/23 00:17:55;;;;;;;;;;;;;;;19.74;51.30;97959.06;2066897;28;2212;-64
2024/02/23 00:18:57;;;;;;;;;;;;;;;19.74;51.36;97959.78;2068974;28;2573;-63
2024/02/23 00:19:59;;;;;;;;;;;;;;;19.73;51.40;97951.91;2068985;28;2275;-64
2024/02/23 00:21:00;;;;;;;;;;;;;;;19.72;51.30;97945.41;2066992;28;2295;-63
2024/02/23 00:22:02;;;;;;;;;;;;;;;19.71;51.33;97943.28;2067201;28;2373;-62
2024/02/23 00:23:05;;;;;;;;;;;;;;;19.72;51.33;97939.69;2069349;28;2296;-63
2024/02/23 00:24:07;;;;;;;;;;;;;;;19.70;51.23;97941.81;2069746;28;2152;-63
2024/02/23 00:25:09;;;;;;;;;;;;;;;19.71;51.32;97934.66;2068223;28;2220;-63
2024/02/23 00:26:10;;;;;;;;;;;;;;;19.70;51.24;97950.44;2070662;28;2236;-63
2024/02/23 00:27:11;;;;;;;;;;;;;;;19.71;51.39;97951.88;2069100;28;1704;-63
2024/02/23 00:28:13;;;;;;;;;;;;;;;19.71;51.36;97954.75;2067414;28;1715;-63
2024/02/23 00:29:14;;;;;;;;;;;;;;;19.71;51.50;97954.75;2067165;28;2171;-63
2024/02/23 00:30:16;;;;;;;;;;;;;;;19.70;51.38;97948.31;2068985;28;7077;-63
2024/02/23 00:31:17;;;;;;;;;;;;;;;19.70;51.32;97959.78;2069137;28;2238;-63
2024/02/23 00:32:18;;;;;;;;;;;;;;;19.69;51.34;97943.28;2066953;28;1648;-63
2024/02/23 00:33:20;;;;;;;;;;;;;;;19.70;51.46;97938.94;2069873;28;2360;-62
2024/02/23 00:34:22;;;;;;;;;;;;;;;19.68;51.34;97945.41;2068368;28;2320;-63
2024/02/23 00:35:23;;;;;;;;;;;;;;;19.69;51.51;97935.38;2069837;28;2171;-66
2024/02/23 00:36:25;;;;;;;;;;;;;;;19.70;51.35;97941.81;2077022;28;2174;-65
2024/02/23 00:37:26;;;;;;;;;;;;;;;19.68;51.38;97939.66;2075097;28;1959;-68
2024/02/23 00:38:28;;;;;;;;;;;;;;;19.67;51.35;97938.91;2069147;28;1688;-67
2024/02/23 00:39:32;;;;;;;;;;;;;;;19.67;51.31;97950.41;2069074;28;2216;-67
2024/02/23 00:40:33;;;;;;;;;;;;;;;19.69;51.34;97960.50;2069983;28;2301;-67
2024/02/23 00:41:35;;;;;;;;;;;;;;;19.67;51.17;97956.13;2066827;28;2136;-67
2024/02/23 00:42:36;;;;;;;;;;;;;;;19.67;51.19;97947.53;2066527;28;1694;-67
2024/02/23 00:43:39;;;;;;;;;;;;;;;19.67;51.25;97961.88;2069351;28;2259;-67
2024/02/23 00:44:40;;;;;;;;;;;;;;;19.67;51.24;97953.28;2068694;28;1621;-67
2024/02/23 00:45:41;;;;;;;;;;;;;;;19.67;51.24;97950.41;2065612;28;2326;-67
2024/02/23 00:46:43;;;;;;;;;;;;;;;19.68;51.21;97945.41;2068931;28;1648;-67
2024/02/23 00:47:46;;;;;;;;;;;;;;;19.67;51.39;97953.28;2068033;28;1858;-66
2024/02/23 00:48:48;;;;;;;;;;;;;;;19.66;51.18;97963.31;2066693;28;2193;-67
2024/02/23 00:49:49;;;;;;;;;;;;;;;19.67;51.30;97961.88;2070664;28;2451;-67
2024/02/23 00:50:50;;;;;;;;;;;;;;;19.66;51.16;97954.72;2070061;28;2199;-67
2024/02/23 00:51:52;;;;;;;;;;;;;;;19.67;51.31;97961.88;2069118;28;1571;-67
2024/02/23 00:52:53;;;;;;;;;;;;;;;19.66;51.16;97971.94;2070789;28;2306;-66
2024/02/23 00:53:55;;;;;;;;;;;;;;;19.65;51.22;97984.88;2070865;28;1635;-67
2024/02/23 00:54:56;;;;;;;;;;;;;;;19.66;51.22;97991.31;2068465;28;2224;-67
2024/02/23 00:55:58;;;;;;;;;;;;;;;19.67;51.24;97984.84;2069206;28;2208;-67
2024/02/23 00:56:59;;;;;;;;;;;;;;;19.67;51.29;97993.47;2070250;28;2544;-67
2024/02/23 00:58:01;;;;;;;;;;;;;;;19.66;51.25;97989.16;2068279;28;1794;-67
2024/02/23 00:59:02;;;;;;;;;;;;;;;19.65;51.29;97993.47;2066432;28;2206;-67
2024/02/23 01:00:07;;;;;;;;;;;;;;;19.66;51.12;97994.19;2069010;28;7134;-67
2024/02/23 01:01:08;;;;;;;;;;;;;;;19.65;51.32;97989.88;2068114;28;2398;-67
2024/02/23 01:02:09;;;;;;;;;;;;;;;19.66;51.09;98012.13;2067969;28;1878;-67
2024/02/23 01:03:11;;;;;;;;;;;;;;;19.64;51.34;98003.50;2071631;28;2129;-67
2024/02/23 01:04:12;;;;;;;;;;;;;;;19.64;51.28;97994.88;2068567;28;2176;-67
2024/02/23 01:05:14;;;;;;;;;;;;;;;19.64;51.14;97994.19;2065808;28;1691;-67
2024/02/23 01:06:16;;;;;;;;;;;;;;;19.63;51.28;97996.34;2070896;28;2573;-67
2024/02/23 01:07:18;;;;;;;;;;;;;;;19.63;51.25;98002.06;2068560;28;2175;-67
2024/02/23 01:08:19;;;;;;;;;;;;;;;19.63;51.11;98001.34;2071020;28;1593;-67
2024/02/23 01:09:21;;;;;;;;;;;;;;;19.63;51.15;98007.06;2071533;28;2302;-67
2024/02/23 01:10:22;;;;;;;;;;;;;;;19.62;51.13;98012.09;2071291;28;1628;-66
2024/02/23 01:11:23;;;;;;;;;;;;;;;19.62;51.34;98003.50;2070765;28;1755;-67
2024/02/23 01:12:25;;;;;;;;;;;;;;;19.62;51.24;98023.59;2071796;28;1728;-67
2024/02/23 01:13:26;;;;;;;;;;;;;;;19.62;51.30;98026.44;2069540;28;2324;-67
2024/02/23 01:14:28;;;;;;;;;;;;;;;19.62;51.15;98023.59;2074037;28;1569;-67
2024/02/23 01:15:29;;;;;;;;;;;;;;;19.63;51.11;98024.28;2068660;28;2231;-67
2024/02/23 01:16:32;;;;;;;;;;;;;;;19.63;51.03;98036.50;2071576;28;1597;-68
2024/02/23 01:17:33;;;;;;;;;;;;;;;19.62;51.22;98035.06;2074123;28;1624;-67
2024/02/23 01:18:35;;;;;;;;;;;;;;;19.62;51.08;98043.66;2068923;28;1868;-67
2024/02/23 01:19:36;;;;;;;;;;;;;;;19.61;51.15;98045.13;2069734;28;2416;-67
2024/02/23 01:20:38;;;;;;;;;;;;;;;19.62;51.06;98040.81;2067516;28;1979;-67
2024/02/23 01:21:39;;;;;;;;;;;;;;;19.61;51.14;98042.25;2070843;28;1965;-67
2024/02/23 01:22:40;;;;;;;;;;;;;;;19.61;51.05;98050.84;2072653;28;1700;-67
2024/02/23 01:23:42;;;;;;;;;;;;;;;19.61;51.15;98050.16;2071017;28;2394;-67
2024/02/23 01:24:43;;;;;;;;;;;;;;;19.60;51.09;98049.41;2071036;28;1724;-67
2024/02/23 01:25:44;;;;;;;;;;;;;;;19.61;51.10;98050.84;2070425;28;2187;-67
2024/02/23 01:26:46;;;;;;;;;;;;;;;19.60;51.09;98049.41;2071248;28;1878;-67
2024/02/23 01:27:48;;;;;;;;;;;;;;;19.60;51.08;98060.16;2067444;28;1687;-67
2024/02/23 01:28:49;;;;;;;;;;;;;;;19.59;51.12;98053.00;2071467;28;1672;-66
2024/02/23 01:29:50;;;;;;;;;;;;;;;19.59;51.09;98061.59;2068787;28;2073;-67
2024/02/23 01:30:52;;;;;;;;;;;;;;;19.58;51.06;98052.25;2069494;28;6093;-67
2024/02/23 01:31:54;;;;;;;;;;;;;;;19.59;51.02;98065.19;2068798;28;1722;-67
2024/02/23 01:32:56;;;;;;;;;;;;;;;19.57;51.18;98067.34;2069245;28;1613;-67
2024/02/23 01:33:57;;;;;;;;;;;;;;;19.57;51.05;98073.06;2071039;28;1632;-67
2024/02/23 01:34:58;;;;;;;;;;;;;;;19.56;51.12;98069.50;2068323;28;2254;-67
2024/02/23 01:36:00;;;;;;;;;;;;;;;19.57;51.12;98073.78;2071815;28;2283;-66
2024/02/23 01:37:01;;;;;;;;;;;;;;;19.56;51.08;98066.63;2068287;28;1660;-67
2024/02/23 01:38:03;;;;;;;;;;;;;;;19.56;51.19;98072.38;2070255;28;1850;-67
2024/02/23 01:39:04;;;;;;;;;;;;;;;19.56;51.13;98083.09;2070075;28;2124;-67
2024/02/23 01:40:06;;;;;;;;;;;;;;;19.55;51.12;98082.38;2070186;28;2242;-67
2024/02/23 01:41:07;;;;;;;;;;;;;;;19.55;51.05;98076.66;2066082;28;1942;-66
2024/02/23 01:42:09;;;;;;;;;;;;;;;19.54;51.12;98069.47;2069755;28;1633;-67
2024/02/23 01:43:10;;;;;;;;;;;;;;;19.54;51.06;98078.09;2070535;28;2195;-65
2024/02/23 01:44:11;;;;;;;;;;;;;;;19.55;51.01;98093.88;2071079;28;2141;-66
2024/02/23 01:45:13;;;;;;;;;;;;;;;19.54;51.01;98097.44;2070368;28;2175;-67
2024/02/23 01:46:18;;;;;;;;;;;;;;;19.55;50.91;98102.47;2069352;28;2186;-67
2024/02/23 01:47:19;;;;;;;;;;;;;;;19.54;50.86;98112.53;2068457;28;1917;-67
2024/02/23 01:48:21;;;;;;;;;;;;;;;19.54;50.83;98109.66;2072268;28;1640;-66
2024/02/23 01:49:29;;;;;;;;;;;;;;;19.54;50.83;98115.41;2068412;28;2266;-67
2024/02/23 01:50:31;;;;;;;;;;;;;;;19.53;50.73;98111.06;2068594;28;2144;-67
2024/02/23 01:51:33;;;;;;;;;;;;;;;19.55;50.80;98111.09;2068891;28;1878;-67
2024/02/23 01:52:34;;;;;;;;;;;;;;;19.55;50.79;98119.69;2071855;28;1664;-67
2024/02/23 01:53:36;;;;;;;;;;;;;;;19.55;50.72;98122.56;2067987;28;2251;-67
2024/02/23 01:54:37;;;;;;;;;;;;;;;19.54;50.83;98126.88;2069455;28;2006;-67
2024/02/23 01:55:42;;;;;;;;;;;;;;;19.54;50.74;98126.88;2068912;28;1739;-67
2024/02/23 01:56:43;;;;;;;;;;;;;;;19.53;50.78;98131.16;2069516;28;2259;-67
2024/02/23 01:57:45;;;;;;;;;;;;;;;19.54;50.63;98149.84;2070058;28;1656;-67
2024/02/23 01:58:51;;;;;;;;;;;;;;;19.54;50.54;98146.97;2071211;28;1871;-67
2024/02/23 01:59:53;;;;;;;;;;;;;;;19.54;50.54;98161.31;2066513;28;2247;-66
2024/02/23 02:00:54;;;;;;;;;;;;;;;19.54;50.46;98172.06;2068561;28;6310;-67
2024/02/23 02:01:55;;;;;;;;;;;;;;;19.55;50.62;98179.25;2068761;28;2219;-66
2024/02/23 02:02:57;;;;;;;;;;;;;;;19.53;50.60;98179.25;2071869;28;1907;-66
2024/02/23 02:03:58;;;;;;;;;;;;;;;19.52;50.59;98187.13;2066640;28;2235;-67
2024/02/23 02:05:00;;;;;;;;;;;;;;;19.52;50.40;98187.13;2070511;28;1928;-67
2024/02/23 02:06:01;;;;;;;;;;;;;;;19.53;50.47;98202.19;2070390;28;2167;-68
2024/02/23 02:07:02;;;;;;;;;;;;;;;19.53;50.40;98200.03;2067880;28;2223;-67
2024/02/23 02:08:04;;;;;;;;;;;;;;;19.53;50.18;98216.53;2071034;28;1632;-68
2024/02/23 02:09:06;;;;;;;;;;;;;;;19.54;50.10;98221.59;2070364;28;1735;-69
2024/02/23 02:10:08;;;;;;;;;;;;;;;19.53;50.19;98225.88;2068087;28;2010;-67
2024/02/23 02:11:09;;;;;;;;;;;;;;;19.53;49.96;98223.00;2068522;28;2132;-67
2024/02/23 02:12:11;;;;;;;;;;;;;;;19.52;49.89;98233.06;2070171;28;2259;-67
2024/02/23 02:13:13;;;;;;;;;;;;;;;19.53;49.87;98228.03;2072575;28;1640;-68
2024/02/23 02:14:14;;;;;;;;;;;;;;;19.54;49.76;98240.94;2066420;28;2171;-67
2024/02/23 02:15:16;;;;;;;;;;;;;;;19.53;49.88;98245.97;2069478;28;2290;-67
2024/02/23 02:16:17;;;;;;;;;;;;;;;19.55;49.87;98243.09;2068639;28;2533;-67
2024/02/23 02:17:18;;;;;;;;;;;;;;;19.54;50.00;98247.41;2071464;28;1589;-68
2024/02/23 02:18:20;;;;;;;;;;;;;;;19.55;49.57;98260.34;2070674;28;2245;-67
2024/02/23 02:19:21;;;;;;;;;;;;;;;19.55;49.63;98260.34;2068930;28;2595;-68
2024/02/23 02:20:27;;;;;;;;;;;;;;;19.56;49.66;98270.41;2067983;28;1616;-67
2024/02/23 02:21:29;;;;;;;;;;;;;;;19.56;49.50;98290.50;2069990;28;1906;-68
2024/02/23 02:22:32;;;;;;;;;;;;;;;19.57;49.69;98283.31;2069819;28;2195;-67
2024/02/23 02:23:33;;;;;;;;;;;;;;;19.57;49.72;98286.19;2069612;28;2416;-68
2024/02/23 02:24:35;;;;;;;;;;;;;;;19.57;49.77;98297.66;2069616;28;1750;-67
2024/02/23 02:25:36;;;;;;;;;;;;;;;19.57;49.75;98309.16;2070467;28;2084;-68
2024/02/23 02:26:38;;;;;;;;;;;;;;;19.58;49.78;98309.84;2068743;28;2302;-66
2024/02/23 02:27:39;;;;;;;;;;;;;;;19.57;49.71;98300.53;2069025;28;1751;-67
2024/02/23 02:28:40;;;;;;;;;;;;;;;19.56;49.87;98298.34;2066921;28;2258;-67
2024/02/23 02:29:42;;;;;;;;;;;;;;;19.58;49.83;98322.06;2069607;28;1982;-67
2024/02/23 02:30:43;;;;;;;;;;;;;;;19.56;49.83;98313.44;2065111;28;5997;-67
2024/02/23 02:31:44;;;;;;;;;;;;;;;19.57;49.75;98311.28;2069566;28;1845;-68
2024/02/23 02:32:46;;;;;;;;;;;;;;;19.56;49.94;98315.56;2069090;28;2197;-67
2024/02/23 02:33:47;;;;;;;;;;;;;;;19.56;49.73;98324.19;2069173;28;2132;-67
2024/02/23 02:34:49;;;;;;;;;;;;;;;19.56;49.80;98330.66;2066950;28;1911;-67
2024/02/23 02:35:50;;;;;;;;;;;;;;;19.56;49.68;98332.78;2071853;28;2006;-68
2024/02/23 02:36:51;;;;;;;;;;;;;;;19.55;49.65;98334.94;2069075;28;2297;-67
2024/02/23 02:37:53;;;;;;;;;;;;;;;19.54;49.56;98327.78;2071313;28;2124;-67
2024/02/23 02:38:54;;;;;;;;;;;;;;;19.53;49.48;98337.81;2068069;28;1761;-67
2024/02/23 02:39:55;;;;;;;;;;;;;;;19.54;49.44;98338.53;2070217;28;2092;-67
2024/02/23 02:40:57;;;;;;;;;;;;;;;19.54;49.50;98350.75;2071498;28;2184;-67
2024/02/23 02:41:58;;;;;;;;;;;;;;;19.53;49.81;98340.66;2067191;28;2405;-67
2024/02/23 02:43:00;;;;;;;;;;;;;;;19.54;49.49;98341.38;2069775;28;2124;-67
2024/02/23 02:44:01;;;;;;;;;;;;;;;19.54;49.64;98339.25;2069916;28;1997;-68
2024/02/23 02:45:03;;;;;;;;;;;;;;;19.54;49.50;98350.75;2067837;28;1935;-67
2024/02/23 02:46:04;;;;;;;;;;;;;;;19.55;49.31;98345.72;2070120;28;2347;-67
2024/02/23 02:47:06;;;;;;;;;;;;;;;19.54;49.40;98333.53;2066483;28;2211;-67
2024/02/23 02:48:07;;;;;;;;;;;;;;;19.54;49.35;98336.38;2070773;28;1693;-68
2024/02/23 02:49:09;;;;;;;;;;;;;;;19.53;49.34;98343.53;2067065;28;2219;-67
2024/02/23 02:50:10;;;;;;;;;;;;;;;19.54;49.26;98339.25;2071288;28;2192;-67
2024/02/23 02:51:12;;;;;;;;;;;;;;;19.52;49.30;98347.84;2069624;28;2136;-67
2024/02/23 02:52:13;;;;;;;;;;;;;;;19.54;49.42;98341.38;2070095;28;1638;-67
2024/02/23 02:53:15;;;;;;;;;;;;;;;19.52;49.48;98347.84;2068808;28;2112;-67
2024/02/23 02:54:17;;;;;;;;;;;;;;;19.52;49.36;98353.59;2068610;28;2148;-67
2024/02/23 02:55:18;;;;;;;;;;;;;;;19.53;49.41;98352.16;2070742;28;2199;-67
2024/02/23 02:56:20;;;;;;;;;;;;;;;19.51;49.34;98352.13;2070634;28;1772;-67
2024/02/23 02:57:21;;;;;;;;;;;;;;;19.52;49.38;98358.63;2068594;28;2192;-67
2024/02/23 02:58:22;;;;;;;;;;;;;;;19.52;49.26;98347.13;2068091;28;1704;-67
2024/02/23 02:59:24;;;;;;;;;;;;;;;19.52;49.16;98356.47;2070454;28;2247;-67
2024/02/23 03:00:30;;;;;;;;;;;;;;;19.52;49.22;98362.19;2069944;28;8537;-67
2024/02/23 03:01:32;;;;;;;;;;;;;;;19.51;49.33;98366.47;2071638;28;2616;-67
2024/02/23 03:02:33;;;;;;;;;;;;;;;19.51;49.17;98363.59;2070877;28;1918;-67
2024/02/23 03:03:35;;;;;;;;;;;;;;;19.51;49.17;98363.59;2069511;28;2176;-67
2024/02/23 03:04:36;;;;;;;;;;;;;;;19.51;49.22;98357.88;2066926;28;2054;-67
2024/02/23 03:05:37;;;;;;;;;;;;;;;19.51;49.23;98366.47;2069882;28;2378;-67
2024/02/23 03:06:39;;;;;;;;;;;;;;;19.50;49.27;98373.66;2067962;28;1689;-67
2024/02/23 03:07:40;;;;;;;;;;;;;;;19.52;49.05;98365.06;2066936;28;1788;-67
2024/02/23 03:08:42;;;;;;;;;;;;;;;19.52;49.25;98381.56;2069601;28;1742;-67
2024/02/23 03:09:44;;;;;;;;;;;;;;;19.50;49.29;98385.13;2071989;28;1790;-67
2024/02/23 03:10:45;;;;;;;;;;;;;;;19.51;49.33;98389.44;2067486;28;1927;-68
2024/02/23 03:11:47;;;;;;;;;;;;;;;19.50;49.33;98396.63;2067162;28;2054;-68
2024/02/23 03:12:49;;;;;;;;;;;;;;;19.50;49.18;98399.50;2069413;28;2062;-66
2024/02/23 03:13:50;;;;;;;;;;;;;;;19.50;49.18;98385.13;2067523;28;2188;-67
2024/02/23 03:14:51;;;;;;;;;;;;;;;19.49;49.26;98395.16;2070977;28;1734;-67
2024/02/23 03:15:53;;;;;;;;;;;;;;;19.49;49.41;98395.16;2069914;28;2247;-68
2024/02/23 03:16:54;;;;;;;;;;;;;;;19.48;49.12;98393.72;2068428;28;2072;-67
2024/02/23 03:17:55;;;;;;;;;;;;;;;19.48;49.18;98396.59;2071076;28;1998;-67
2024/02/23 03:18:57;;;;;;;;;;;;;;;19.48;49.31;98393.00;2069283;28;1788;-67
2024/02/23 03:19:58;;;;;;;;;;;;;;;19.49;49.16;98400.91;2068681;28;2128;-67
2024/02/23 03:21:00;;;;;;;;;;;;;;;19.48;49.24;98385.09;2068312;28;1673;-66
2024/02/23 03:22:01;;;;;;;;;;;;;;;19.49;49.21;98398.03;2068850;28;2156;-69
2024/02/23 03:23:03;;;;;;;;;;;;;;;19.48;49.31;98404.47;2070643;28;1958;-68
2024/02/23 03:24:05;;;;;;;;;;;;;;;19.47;49.22;98392.28;2067605;28;2204;-68
2024/02/23 03:25:09;;;;;;;;;;;;;;;19.47;49.29;98403.78;2071440;28;1760;-67
2024/02/23 03:26:11;;;;;;;;;;;;;;;19.47;49.30;98406.63;2069643;28;2157;-67
2024/02/23 03:27:12;;;;;;;;;;;;;;;19.46;49.23;98397.28;2066653;28;1939;-67
2024/02/23 03:28:14;;;;;;;;;;;;;;;19.47;49.24;98403.78;2070417;28;2306;-67
2024/02/23 03:29:15;;;;;;;;;;;;;;;19.47;49.07;98403.78;2069444;28;2307;-67
2024/02/23 03:30:17;;;;;;;;;;;;;;;19.46;49.18;98403.03;2066435;28;6229;-67
2024/02/23 03:31:18;;;;;;;;;;;;;;;19.47;49.18;98403.78;2060673;28;2197;-68
2024/02/23 03:32:19;;;;;;;;;;;;;;;19.47;49.08;98418.13;2062245;28;2296;-67
2024/02/23 03:33:22;;;;;;;;;;;;;;;19.46;49.07;98420.25;2062115;28;2185;-67
2024/02/23 03:34:23;;;;;;;;;;;;;;;19.47;48.98;98426.72;2061523;28;2165;-67
2024/02/23 03:35:25;;;;;;;;;;;;;;;19.48;49.01;98421.69;2061186;28;2596;-67
2024/02/23 03:36:26;;;;;;;;;;;;;;;19.46;49.06;98410.91;2061045;28;1647;-68
2024/02/23 03:37:27;;;;;;;;;;;;;;;19.46;49.13;98431.00;2058612;28;1731;-67
2024/02/23 03:38:29;;;;;;;;;;;;;;;19.46;49.15;98420.25;2061476;28;1708;-68
2024/02/23 03:39:34;;;;;;;;;;;;;;;19.46;49.16;98420.25;2061986;28;2161;-67
2024/02/23 03:40:35;;;;;;;;;;;;;;;19.47;49.12;98432.47;2059771;28;2004;-68
2024/02/23 03:41:37;;;;;;;;;;;;;;;19.47;49.21;98426.72;2060462;28;2522;-67
2024/02/23 03:42:38;;;;;;;;;;;;;;;19.48;49.25;98433.19;2062540;28;2133;-66
2024/02/23 03:43:39;;;;;;;;;;;;;;;19.47;49.28;98441.06;2060574;28;1607;-67
2024/02/23 03:44:42;;;;;;;;;;;;;;;19.48;49.26;98433.19;2060569;28;2315;-67
2024/02/23 03:45:43;;;;;;;;;;;;;;;19.49;49.29;98440.34;2061482;28;2169;-67
2024/02/23 03:46:45;;;;;;;;;;;;;;;19.50;49.23;98430.34;2058141;28;2236;-66
2024/02/23 03:47:46;;;;;;;;;;;;;;;19.50;49.36;98433.94;2061644;28;1599;-67
2024/02/23 03:48:48;;;;;;;;;;;;;;;19.50;49.28;98448.28;2061490;28;2168;-67
2024/02/23 03:49:49;;;;;;;;;;;;;;;19.52;49.29;98439.69;2057186;28;1741;-67
2024/02/23 03:50:50;;;;;;;;;;;;;;;19.52;49.46;98451.16;2061001;28;2396;-67
2024/02/23 03:51:52;;;;;;;;;;;;;;;19.53;49.55;98452.59;2061016;28;2237;-66
2024/02/23 03:52:53;;;;;;;;;;;;;;;19.55;49.51;98466.25;2066153;28;1649;-67
2024/02/23 03:53:55;;;;;;;;;;;;;;;19.56;49.55;98468.44;2060501;28;1753;-67
2024/02/23 03:54:56;;;;;;;;;;;;;;;19.55;49.52;98466.97;2061564;28;2417;-67
2024/02/23 03:55:57;;;;;;;;;;;;;;;19.56;49.56;98477.06;2061021;28;1920;-68
2024/02/23 03:56:59;;;;;;;;;;;;;;;19.56;49.59;98465.56;2059638;28;2194;-67
2024/02/23 03:58:00;;;;;;;;;;;;;;;19.56;49.67;98468.44;2062514;28;1828;-67
2024/02/23 03:59:01;;;;;;;;;;;;;;;19.57;49.61;98474.91;2058394;28;2320;-67
2024/02/23 04:00:03;;;;;;;;;;;;;;;19.57;49.72;98472.75;2059723;28;6169;-67
2024/02/23 04:01:05;;;;;;;;;;;;;;;19.58;49.63;98488.53;2068510;28;2573;-68
2024/02/23 04:02:06;;;;;;;;;;;;;;;19.58;49.62;98476.34;2066964;28;1717;-68
2024/02/23 04:03:08;;;;;;;;;;;;;;;19.57;49.62;98480.66;2069286;28;1979;-67
2024/02/23 04:04:10;;;;;;;;;;;;;;;19.58;49.82;98477.06;2069633;28;2282;-68
2024/02/23 04:05:11;;;;;;;;;;;;;;;19.57;49.79;98489.97;2069422;28;2540;-68
2024/02/23 04:06:13;;;;;;;;;;;;;;;19.57;49.79;98495.72;2071323;28;1661;-67
2024/02/23 04:07:14;;;;;;;;;;;;;;;19.57;49.87;98489.25;2069712;28;1637;-67
2024/02/23 04:08:16;;;;;;;;;;;;;;;19.57;49.79;98480.66;2070256;28;2234;-68
2024/02/23 04:09:17;;;;;;;;;;;;;;;19.56;49.79;98494.28;2069464;28;2153;-67
2024/02/23 04:10:19;;;;;;;;;;;;;;;19.56;49.79;98497.16;2067619;28;2161;-67
2024/02/23 04:11:21;;;;;;;;;;;;;;;19.56;49.84;98497.16;2067927;28;2319;-67
2024/02/23 04:12:22;;;;;;;;;;;;;;;19.57;49.94;98510.06;2065618;28;2212;-67
2024/02/23 04:13:24;;;;;;;;;;;;;;;19.56;49.89;98508.63;2069603;28;1654;-68
2024/02/23 04:14:25;;;;;;;;;;;;;;;19.58;49.97;98516.53;2066985;28;2335;-67
2024/02/23 04:15:27;;;;;;;;;;;;;;;19.58;49.93;98519.38;2066985;28;2121;-68
2024/02/23 04:16:28;;;;;;;;;;;;;;;19.58;49.82;98520.09;2067853;28;2184;-67
2024/02/23 04:17:29;;;;;;;;;;;;;;;19.59;49.92;98518.69;2069706;28;2505;-68
2024/02/23 04:18:32;;;;;;;;;;;;;;;19.60;49.89;98531.63;2069363;28;1914;-67
2024/02/23 04:19:33;;;;;;;;;;;;;;;19.60;49.92;98531.63;2066982;28;1871;-67
2024/02/23 04:20:34;;;;;;;;;;;;;;;19.61;49.81;98535.94;2066767;28;2310;-68
2024/02/23 04:21:36;;;;;;;;;;;;;;;19.62;49.94;98534.53;2068535;28;2640;-68
2024/02/23 04:22:38;;;;;;;;;;;;;;;19.62;49.99;98546.00;2069494;28;2001;-68
2024/02/23 04:23:39;;;;;;;;;;;;;;;19.62;49.89;98537.38;2067983;28;1691;-67
2024/02/23 04:24:41;;;;;;;;;;;;;;;19.63;49.98;98541.72;2068197;28;2324;-67
2024/02/23 04:25:42;;;;;;;;;;;;;;;19.62;49.85;98540.25;2068073;28;2247;-68
2024/02/23 04:26:44;;;;;;;;;;;;;;;19.62;49.88;98539.53;2070140;28;2038;-66
2024/02/23 04:27:45;;;;;;;;;;;;;;;19.62;49.89;98557.47;2067493;28;1999;-68
2024/02/23 04:28:46;;;;;;;;;;;;;;;19.62;50.04;98546.00;2068106;28;1716;-67
2024/02/23 04:29:48;;;;;;;;;;;;;;;19.62;49.93;98546.00;2069945;28;1964;-68
2024/02/23 04:30:49;;;;;;;;;;;;;;;19.62;50.02;98563.22;2067755;28;6147;-67
2024/02/23 04:31:50;;;;;;;;;;;;;;;19.62;49.93;98556.78;2070130;28;1705;-67
2024/02/23 04:32:52;;;;;;;;;;;;;;;19.63;50.07;98563.94;2068897;28;2145;-67
2024/02/23 04:33:53;;;;;;;;;;;;;;;19.62;49.99;98568.25;2068495;28;1939;-68
2024/02/23 04:34:55;;;;;;;;;;;;;;;19.61;49.92;98576.16;2069111;28;2162;-67
2024/02/23 04:35:57;;;;;;;;;;;;;;;19.61;49.95;98578.28;2069474;28;1784;-68
2024/02/23 04:36:58;;;;;;;;;;;;;;;19.62;50.05;98579.72;2067295;28;2011;-68
2024/02/23 04:38:00;;;;;;;;;;;;;;;19.61;50.13;98578.28;2069201;28;2137;-68
2024/02/23 04:39:01;;;;;;;;;;;;;;;19.60;50.07;98582.56;2070391;28;1860;-68
2024/02/23 04:40:04;;;;;;;;;;;;;;;19.60;50.16;98586.16;2065724;28;1723;-67
2024/02/23 04:41:05;;;;;;;;;;;;;;;19.59;50.05;98581.84;2068997;28;2213;-67
2024/02/23 04:42:08;;;;;;;;;;;;;;;19.61;49.98;98590.50;2068057;28;2022;-67
2024/02/23 04:43:09;;;;;;;;;;;;;;;19.60;50.04;98577.56;2071819;28;1922;-67
2024/02/23 04:44:11;;;;;;;;;;;;;;;19.61;50.04;98589.78;2067973;28;1661;-68
2024/02/23 04:45:12;;;;;;;;;;;;;;;19.61;50.07;98596.25;2069854;28;2054;-67
2024/02/23 04:46:14;;;;;;;;;;;;;;;19.61;50.18;98584.75;2071673;28;2048;-67
2024/02/23 04:47:15;;;;;;;;;;;;;;;19.62;50.10;98591.22;2070487;28;2134;-67
2024/02/23 04:48:17;;;;;;;;;;;;;;;19.62;49.98;98603.41;2072063;28;1879;-66
2024/02/23 04:49:18;;;;;;;;;;;;;;;19.62;49.98;98606.28;2071930;28;2066;-67
2024/02/23 04:50:19;;;;;;;;;;;;;;;19.63;49.99;98615.63;2071256;28;2104;-67
2024/02/23 04:51:22;;;;;;;;;;;;;;;19.63;50.01;98616.38;2068329;28;1983;-67
2024/02/23 04:52:24;;;;;;;;;;;;;;;19.63;50.06;98612.75;2068747;28;1959;-67
2024/02/23 04:53:25;;;;;;;;;;;;;;;19.64;49.88;98617.09;2071710;28;2097;-67
2024/02/23 04:54:27;;;;;;;;;;;;;;;19.65;49.93;98622.13;2071628;28;2180;-67
2024/02/23 04:55:28;;;;;;;;;;;;;;;19.65;49.86;98625.00;2070749;28;2112;-67
2024/02/23 04:56:29;;;;;;;;;;;;;;;19.66;50.01;98634.34;2071770;28;1929;-67
2024/02/23 04:57:31;;;;;;;;;;;;;;;19.66;49.95;98635.06;2070263;28;2074;-67
2024/02/23 04:58:33;;;;;;;;;;;;;;;19.66;49.90;98640.78;2072494;28;1652;-67
2024/02/23 04:59:34;;;;;;;;;;;;;;;19.67;49.92;98632.91;2071335;28;2130;-67
2024/02/23 05:00:36;;;;;;;;;;;;;;;19.66;49.93;98649.41;2070425;28;6325;-67
2024/02/23 05:01:37;;;;;;;;;;;;;;;19.66;49.98;98663.75;2068857;28;2109;-67
2024/02/23 05:02:38;;;;;;;;;;;;;;;19.66;49.84;98666.63;2071626;28;2489;-67
2024/02/23 05:03:40;;;;;;;;;;;;;;;19.67;49.97;98668.06;2069329;28;1975;-67
2024/02/23 05:04:41;;;;;;;;;;;;;;;19.66;49.94;98666.63;2069728;28;2124;-67
2024/02/23 05:05:43;;;;;;;;;;;;;;;19.67;50.03;98667.34;2070585;28;2079;-67
2024/02/23 05:06:44;;;;;;;;;;;;;;;19.67;49.97;98667.34;2070818;28;1974;-67
2024/02/23 05:07:46;;;;;;;;;;;;;;;19.67;49.98;98662.34;2070719;28;2174;-67
2024/02/23 05:08:47;;;;;;;;;;;;;;;19.65;50.10;98659.47;2070454;28;1657;-67
2024/02/23 05:09:48;;;;;;;;;;;;;;;19.66;49.90;98671.66;2069487;28;2175;-67
2024/02/23 05:10:50;;;;;;;;;;;;;;;19.66;49.98;98674.53;2071089;28;1917;-66
2024/02/23 05:11:52;;;;;;;;;;;;;;;19.66;50.03;98669.50;2070589;28;2002;-67
2024/02/23 05:12:53;;;;;;;;;;;;;;;19.66;50.00;98678.13;2069201;28;2208;-67
2024/02/23 05:13:55;;;;;;;;;;;;;;;19.65;50.06;98673.81;2070040;28;2292;-68
2024/02/23 05:14:56;;;;;;;;;;;;;;;19.66;49.92;98688.88;2071582;28;1685;-67
2024/02/23 05:15:58;;;;;;;;;;;;;;;19.65;50.09;98687.41;2069208;28;2106;-67
2024/02/23 05:16:59;;;;;;;;;;;;;;;19.64;49.89;98694.59;2071472;28;1859;-67
2024/02/23 05:18:00;;;;;;;;;;;;;;;19.65;49.90;98699.66;2070946;28;1921;-67
2024/02/23 05:19:02;;;;;;;;;;;;;;;19.65;49.91;98698.91;2068962;28;2114;-66
2024/02/23 05:20:07;;;;;;;;;;;;;;;19.65;49.95;98705.38;2070363;28;1630;-66
2024/02/23 05:21:09;;;;;;;;;;;;;;;19.65;49.88;98699.66;2070861;28;2648;-67
2024/02/23 05:22:11;;;;;;;;;;;;;;;19.65;49.85;98714.00;2069681;28;2232;-67
2024/02/23 05:23:12;;;;;;;;;;;;;;;19.64;49.91;98698.19;2071008;28;2140;-67
2024/02/23 05:24:13;;;;;;;;;;;;;;;19.65;49.95;98696.78;2071319;28;2344;-66
2024/02/23 05:25:15;;;;;;;;;;;;;;;19.65;49.76;98698.91;2067830;28;2197;-67